createdAt,value
2022-11-28T00:01:29.577Z,36.90
2022-11-28T00:03:57.197Z,43.38
2022-11-28T00:06:25.427Z,51.08
2022-11-28T00:08:53.103Z,43.88
2022-11-28T00:11:21.149Z,40.33
2022-11-28T00:13:48.981Z,46.72
2022-11-28T00:16:21.360Z,44.97
2022-11-28T00:18:54.574Z,40.33
2022-11-28T00:21:23.300Z,43.85
2022-11-28T00:23:52.851Z,40.05
2022-11-28T00:26:27.168Z,40.67
2022-11-28T00:28:56.575Z,39.80
2022-11-28T00:31:26.163Z,43.63
2022-11-28T00:33:54.202Z,45.00
2022-11-28T00:36:22.935Z,41.45
2022-11-28T00:38:51.257Z,43.00
2022-11-28T00:41:28.421Z,42.10
2022-11-28T00:43:55.956Z,37.00
2022-11-28T00:46:24.610Z,45.35
2022-11-28T00:48:52.395Z,38.63
2022-11-28T00:51:22.902Z,43.33
2022-11-28T00:53:52.151Z,46.85
2022-11-28T00:56:22.305Z,38.53
2022-11-28T00:58:50.003Z,39.65
2022-11-28T01:01:17.286Z,38.60
2022-11-28T01:03:45.680Z,41.60
2022-11-28T01:06:13.697Z,37.20
2022-11-28T01:08:41.038Z,42.50
2022-11-28T01:11:12.939Z,38.80
2022-11-28T01:16:09.454Z,40.25
2022-11-28T01:18:37.802Z,39.88
2022-11-28T01:21:07.016Z,37.80
2022-11-28T01:23:35.285Z,40.53
2022-11-28T01:26:03.782Z,41.22
2022-11-28T01:28:31.161Z,45.08
2022-11-28T01:31:04.482Z,46.10
2022-11-28T01:33:33.212Z,43.67
2022-11-28T01:36:01.101Z,39.92
2022-11-28T01:38:29.459Z,39.97
2022-11-28T01:40:58.054Z,39.10
2022-11-28T01:43:25.535Z,40.17
2022-11-28T01:45:53.299Z,42.28
2022-11-28T01:48:29.323Z,45.60
2022-11-28T01:51:01.059Z,40.88
2022-11-28T01:53:31.122Z,39.40
2022-11-28T01:56:20.984Z,39.28
2022-11-28T01:58:53.970Z,43.97
2022-11-28T02:01:24.365Z,43.53
2022-11-28T02:03:53.331Z,46.72
2022-11-28T02:06:23.317Z,42.25
2022-11-28T02:08:52.698Z,40.20
2022-11-28T02:11:44.754Z,33.95
2022-11-28T02:14:44.285Z,35.83
2022-11-28T02:17:33.419Z,35.05
2022-11-28T02:20:18.631Z,40.85
2022-11-28T02:23:15.379Z,39.58
2022-11-28T02:26:13.839Z,35.63
2022-11-28T02:28:50.410Z,40.47
2022-11-28T02:31:52.954Z,41.72
2022-11-28T02:34:40.345Z,38.88
2022-11-28T02:37:30.239Z,37.33
2022-11-28T02:40:14.578Z,40.78
2022-11-28T02:43:20.362Z,35.20
2022-11-28T02:45:59.919Z,39.03
2022-11-28T02:48:31.602Z,39.88
2022-11-28T02:51:06.321Z,37.45
2022-11-28T02:53:35.030Z,40.40
2022-11-28T02:56:02.649Z,38.88
2022-11-28T02:58:30.103Z,37.67
2022-11-28T03:00:57.779Z,35.03
2022-11-28T03:03:46.246Z,36.88
2022-11-28T03:06:44.533Z,38.25
2022-11-28T03:09:46.369Z,41.10
2022-11-28T03:12:51.552Z,37.50
2022-11-28T03:15:28.994Z,37.35
2022-11-28T03:18:06.050Z,35.60
2022-11-28T03:20:39.682Z,36.25
2022-11-28T03:23:23.687Z,35.47
2022-11-28T03:26:01.778Z,36.20
2022-11-28T03:28:40.572Z,37.17
2022-11-28T03:31:15.688Z,38.97
2022-11-28T03:33:50.070Z,38.58
2022-11-28T03:36:31.403Z,37.45
2022-11-28T03:39:04.985Z,36.97
2022-11-28T03:42:07.295Z,33.10
2022-11-28T03:44:45.568Z,31.98
2022-11-28T03:47:12.910Z,34.53
2022-11-28T03:49:53.006Z,33.70
2022-11-28T03:52:35.963Z,35.10
2022-11-28T03:55:13.578Z,32.85
2022-11-28T03:58:09.942Z,35.97
2022-11-28T04:00:48.713Z,33.55
2022-11-28T04:03:33.042Z,35.47
2022-11-28T04:06:07.994Z,33.92
2022-11-28T04:08:53.001Z,29.60
2022-11-28T04:11:25.943Z,37.75
2022-11-28T04:14:12.352Z,34.63
2022-11-28T04:16:56.714Z,33.78
2022-11-28T04:19:46.516Z,35.83
2022-11-28T04:22:21.356Z,33.17
2022-11-28T04:24:54.426Z,32.05
2022-11-28T04:27:30.577Z,37.15
2022-11-28T04:30:01.657Z,38.10
2022-11-28T04:32:32.429Z,34.67
2022-11-28T04:35:06.506Z,34.05
2022-11-28T04:37:37.351Z,34.30
2022-11-28T04:40:08.184Z,41.17
2022-11-28T04:42:49.919Z,32.50
2022-11-28T04:45:30.855Z,35.15
2022-11-28T04:47:59.080Z,35.92
2022-11-28T04:50:32.076Z,31.77
2022-11-28T04:53:33.076Z,34.05
2022-11-28T04:56:05.295Z,35.85
2022-11-28T04:58:40.360Z,32.20
2022-11-28T05:01:11.764Z,31.73
2022-11-28T05:03:42.759Z,33.40
2022-11-28T05:06:11.065Z,33.83
2022-11-28T05:08:38.645Z,37.83
2022-11-28T05:11:05.941Z,32.47
2022-11-28T05:13:33.199Z,37.13
2022-11-28T05:16:01.469Z,32.90
2022-11-28T05:18:31.021Z,31.65
2022-11-28T05:20:59.276Z,30.85
2022-11-28T05:23:26.586Z,34.72
2022-11-28T05:25:53.832Z,35.17
2022-11-28T05:28:21.071Z,32.33
2022-11-28T05:30:58.121Z,35.50
2022-11-28T05:33:25.459Z,40.70
2022-11-28T05:35:52.983Z,33.00
2022-11-28T05:38:20.316Z,36.40
2022-11-28T05:40:48.361Z,35.88
2022-11-28T05:43:16.234Z,30.38
2022-11-28T05:45:44.973Z,36.50
2022-11-28T05:48:12.697Z,32.40
2022-11-28T05:50:41.523Z,32.17
2022-11-28T05:53:09.473Z,36.42
2022-11-28T05:55:41.149Z,32.78
2022-11-28T05:58:08.621Z,32.00
2022-11-28T06:00:36.272Z,31.73
2022-11-28T06:03:04.742Z,36.72
2022-11-28T06:05:42.643Z,31.80
2022-11-28T06:08:12.429Z,35.15
2022-11-28T06:10:40.903Z,36.40
2022-11-28T06:13:08.899Z,36.95
2022-11-28T06:15:37.955Z,36.55
2022-11-28T06:18:06.063Z,32.83
2022-11-28T06:20:35.223Z,30.60
2022-11-28T06:23:02.892Z,34.00
2022-11-28T06:25:30.545Z,29.80
2022-11-28T06:27:57.786Z,34.85
2022-11-28T06:30:25.347Z,32.97
2022-11-28T06:32:53.030Z,36.33
2022-11-28T06:35:20.786Z,35.72
2022-11-28T06:37:48.548Z,31.95
2022-11-28T06:40:16.001Z,40.95
2022-11-28T06:42:43.939Z,33.28
2022-11-28T06:45:11.644Z,37.73
2022-11-28T06:47:39.297Z,35.22
2022-11-28T06:50:09.659Z,38.78
2022-11-28T06:52:37.235Z,36.72
2022-11-28T06:55:04.788Z,46.10
2022-11-28T06:57:32.807Z,51.05
2022-11-28T07:00:00.115Z,60.22
2022-11-28T07:02:28.043Z,64.70
2022-11-28T07:04:55.346Z,54.42
2022-11-28T07:07:23.072Z,55.55
2022-11-28T07:09:51.027Z,51.88
2022-11-28T07:12:19.595Z,47.20
2022-11-28T07:14:47.517Z,49.20
2022-11-28T07:17:15.337Z,44.30
2022-11-28T07:19:43.179Z,46.00
2022-11-28T07:22:11.763Z,54.05
2022-11-28T07:24:39.234Z,47.40
2022-11-28T07:27:06.551Z,39.72
2022-11-28T07:29:36.810Z,42.75
2022-11-28T07:32:06.205Z,49.85
2022-11-28T07:34:33.809Z,51.63
2022-11-28T07:37:01.689Z,48.75
2022-11-28T07:39:29.001Z,41.35
2022-11-28T07:41:56.503Z,44.63
2022-11-28T07:44:23.954Z,49.15
2022-11-28T07:46:51.695Z,48.00
2022-11-28T07:49:19.451Z,55.00
2022-11-28T07:51:47.705Z,50.22
2022-11-28T07:54:15.031Z,54.92
2022-11-28T07:59:30.605Z,51.25
2022-11-28T08:01:58.073Z,55.05
2022-11-28T08:04:25.494Z,57.03
2022-11-28T08:06:52.895Z,57.58
2022-11-28T08:09:20.173Z,61.15
2022-11-28T08:11:47.555Z,48.63
2022-11-28T08:14:14.861Z,48.17
2022-11-28T08:16:45.128Z,44.55
2022-11-28T08:19:13.281Z,40.13
2022-11-28T08:21:41.777Z,44.97
2022-11-28T08:24:10.772Z,43.47
2022-11-28T08:26:38.267Z,62.95
2022-11-28T08:29:05.615Z,49.00
2022-11-28T08:31:36.815Z,50.85
2022-11-28T08:34:07.378Z,45.42
2022-11-28T08:36:34.835Z,54.22
2022-11-28T08:41:56.995Z,51.05
2022-11-28T08:44:25.541Z,48.15
2022-11-28T08:46:53.738Z,48.97
2022-11-28T08:49:21.035Z,63.65
2022-11-28T08:51:48.371Z,55.60
2022-11-28T08:54:16.183Z,50.65
2022-11-28T08:56:45.259Z,49.13
2022-11-28T08:59:12.949Z,53.05
2022-11-28T09:01:41.681Z,51.53
2022-11-28T09:04:11.731Z,52.42
2022-11-28T09:06:40.269Z,55.60
2022-11-28T09:09:09.102Z,53.78
2022-11-28T09:11:37.373Z,52.88
2022-11-28T09:14:05.731Z,54.20
2022-11-28T09:16:33.139Z,48.67
2022-11-28T09:19:01.069Z,56.90
2022-11-28T09:21:28.347Z,59.92
2022-11-28T09:23:56.470Z,53.90
2022-11-28T09:26:25.382Z,54.72
2022-11-28T09:28:53.798Z,54.03
2022-11-28T09:31:21.596Z,52.03
2022-11-28T09:33:51.763Z,55.40
2022-11-28T09:36:22.150Z,55.22
2022-11-28T09:38:49.924Z,59.85
2022-11-28T09:41:39.118Z,53.45
2022-11-28T09:44:24.206Z,53.42
2022-11-28T09:46:55.295Z,53.88
2022-11-28T09:49:34.013Z,58.47
2022-11-28T09:52:18.007Z,60.92
2022-11-28T09:54:52.497Z,51.85
2022-11-28T09:57:33.535Z,56.28
2022-11-28T10:00:01.455Z,54.45
2022-11-28T10:03:14.477Z,58.05
2022-11-28T10:06:10.779Z,57.88
2022-11-28T10:09:15.182Z,54.10
2022-11-28T10:11:53.795Z,55.60
2022-11-28T10:14:35.715Z,53.38
2022-11-28T10:19:56.199Z,58.80
2022-11-28T10:22:44.484Z,50.85
2022-11-28T10:25:21.269Z,44.35
2022-11-28T10:27:50.306Z,49.83
2022-11-28T10:30:28.928Z,50.58
2022-11-28T10:32:59.522Z,51.38
2022-11-28T10:35:35.505Z,46.50
2022-11-28T10:38:10.314Z,53.40
2022-11-28T10:40:58.426Z,56.85
2022-11-28T10:43:32.911Z,55.22
2022-11-28T10:46:14.116Z,60.55
2022-11-28T10:49:12.528Z,60.60
2022-11-28T10:51:54.958Z,62.35
2022-11-28T10:54:46.899Z,70.55
2022-11-28T10:57:32.995Z,66.20
2022-11-28T11:00:13.115Z,67.47
2022-11-28T11:02:49.235Z,71.68
2022-11-28T11:05:28.940Z,60.92
2022-11-28T11:08:11.478Z,56.90
2022-11-28T11:10:49.238Z,61.42
2022-11-28T11:13:26.342Z,57.60
2022-11-28T11:16:00.947Z,55.10
2022-11-28T11:18:34.943Z,70.20
2022-11-28T11:21:18.322Z,58.80
2022-11-28T11:23:47.487Z,51.88
2022-11-28T11:26:27.735Z,53.03
2022-11-28T11:28:56.176Z,51.65
2022-11-28T11:31:44.923Z,57.53
2022-11-28T11:34:21.383Z,55.75
2022-11-28T11:36:49.814Z,50.95
2022-11-28T11:39:23.760Z,53.00
2022-11-28T11:42:00.519Z,52.42
2022-11-28T11:44:29.822Z,53.67
2022-11-28T11:47:03.998Z,51.75
2022-11-28T11:49:41.468Z,45.00
2022-11-28T11:52:14.976Z,51.95
2022-11-28T11:54:57.478Z,49.33
2022-11-28T11:57:33.654Z,54.22
2022-11-28T12:00:13.677Z,48.10
2022-11-28T12:03:11.689Z,55.03
2022-11-28T12:06:14.383Z,50.42
2022-11-28T12:09:09.212Z,60.88
2022-11-28T12:11:47.085Z,62.42
2022-11-28T12:14:34.216Z,53.42
2022-11-28T12:20:42.184Z,52.45
2022-11-28T12:23:30.850Z,48.17
2022-11-28T12:26:14.374Z,49.58
2022-11-28T12:29:07.103Z,44.30
2022-11-28T12:31:44.822Z,40.00
2022-11-28T12:34:21.199Z,40.17
2022-11-28T12:37:09.571Z,36.67
2022-11-28T12:39:49.614Z,40.10
2022-11-28T12:42:29.489Z,40.05
2022-11-28T12:45:21.724Z,48.83
2022-11-28T12:50:32.071Z,39.67
2022-11-28T12:53:21.196Z,37.38
2022-11-28T12:56:10.869Z,49.10
2022-11-28T12:58:47.476Z,45.10
2022-11-28T13:01:20.810Z,39.10
2022-11-28T13:04:13.709Z,43.85
2022-11-28T13:07:15.467Z,44.92
2022-11-28T13:09:58.485Z,47.47
2022-11-28T13:12:30.255Z,50.63
2022-11-28T13:15:22.859Z,100.25
2022-11-28T13:18:22.559Z,64.18
2022-11-28T13:21:07.156Z,49.95
2022-11-28T13:23:47.901Z,51.92
2022-11-28T13:26:18.264Z,54.00
2022-11-28T13:28:57.845Z,49.17
2022-11-28T13:31:29.545Z,42.67
2022-11-28T13:39:51.885Z,40.38
2022-11-28T13:43:02.359Z,43.15
2022-11-28T13:45:32.239Z,41.65
2022-11-28T13:48:20.259Z,41.58
2022-11-28T13:51:18.578Z,50.92
2022-11-28T13:53:49.489Z,52.60
2022-11-28T13:56:23.880Z,67.63
2022-11-28T13:59:00.752Z,48.25
2022-11-28T14:01:42.601Z,46.50
2022-11-28T14:04:13.648Z,55.30
2022-11-28T14:06:44.717Z,51.42
2022-11-28T14:09:12.345Z,54.92
2022-11-28T14:11:42.828Z,50.78
2022-11-28T14:14:35.585Z,58.95
2022-11-28T14:19:58.132Z,48.72
2022-11-28T14:22:56.674Z,59.08
2022-11-28T14:25:31.026Z,62.50
2022-11-28T14:28:16.003Z,56.67
2022-11-28T14:30:45.702Z,59.88
2022-11-28T14:33:47.354Z,62.38
2022-11-28T14:36:30.687Z,57.30
2022-11-28T14:39:03.815Z,56.92
2022-11-28T14:41:31.355Z,58.38
2022-11-28T14:44:54.770Z,51.92
2022-11-28T14:47:23.713Z,54.40
2022-11-28T14:50:06.090Z,64.70
2022-11-28T14:52:46.450Z,57.78
2022-11-28T14:55:20.532Z,56.00
2022-11-28T14:57:59.672Z,53.50
2022-11-28T15:00:35.033Z,58.03
2022-11-28T15:03:36.617Z,57.70
2022-11-28T15:06:20.938Z,60.10
2022-11-28T15:09:07.087Z,58.28
2022-11-28T15:12:08.293Z,55.90
2022-11-28T15:14:38.822Z,58.88
2022-11-28T15:17:12.083Z,69.78
2022-11-28T15:19:47.559Z,61.05
2022-11-28T15:22:39.539Z,58.75
2022-11-28T15:25:29.458Z,57.78
2022-11-28T15:28:13.450Z,56.97
2022-11-28T15:30:47.068Z,59.50
2022-11-28T15:33:15.575Z,65.28
2022-11-28T15:36:12.970Z,59.28
2022-11-28T15:38:42.974Z,55.72
2022-11-28T15:41:10.735Z,77.68
2022-11-28T15:43:44.468Z,67.57
2022-11-28T15:46:24.656Z,59.38
2022-11-28T15:48:53.064Z,62.17
2022-11-28T15:51:32.886Z,59.13
2022-11-28T15:54:27.462Z,57.03
2022-11-28T15:56:59.699Z,58.65
2022-11-28T15:59:28.031Z,61.78
2022-11-28T16:02:00.487Z,55.08
2022-11-28T16:04:29.730Z,55.53
2022-11-28T16:07:00.994Z,63.35
2022-11-28T16:09:35.054Z,61.97
2022-11-28T16:12:05.651Z,60.17
2022-11-28T16:14:35.645Z,56.50
2022-11-28T16:17:13.303Z,58.08
2022-11-28T16:19:43.747Z,60.78
2022-11-28T16:22:17.580Z,59.97
2022-11-28T16:24:55.312Z,61.75
2022-11-28T16:27:44.373Z,59.00
2022-11-28T16:30:26.872Z,61.05
2022-11-28T16:32:55.947Z,61.28
2022-11-28T16:35:40.318Z,62.90
2022-11-28T16:38:23.634Z,64.15
2022-11-28T16:40:58.941Z,64.45
2022-11-28T16:43:32.457Z,57.15
2022-11-28T16:46:01.963Z,61.05
2022-11-28T16:48:36.554Z,58.92
2022-11-28T16:51:13.219Z,76.88
2022-11-28T16:53:51.907Z,57.72
2022-11-28T16:56:29.759Z,66.82
2022-11-28T16:59:09.732Z,77.80
2022-11-28T17:01:37.464Z,85.68
2022-11-28T17:04:05.138Z,114.72
2022-11-28T17:06:37.377Z,81.68
2022-11-28T17:09:09.325Z,71.13
2022-11-28T17:14:13.083Z,59.17
2022-11-28T17:16:42.947Z,67.32
2022-11-28T17:19:10.837Z,66.43
2022-11-28T17:21:48.656Z,63.22
2022-11-28T17:24:22.236Z,60.88
2022-11-28T17:26:50.739Z,62.42
2022-11-28T17:29:19.941Z,60.75
2022-11-28T17:31:48.803Z,64.80
2022-11-28T17:34:21.875Z,66.18
2022-11-28T17:36:49.640Z,71.88
2022-11-28T17:39:18.514Z,70.38
2022-11-28T17:41:47.438Z,78.13
2022-11-28T17:44:33.082Z,72.00
2022-11-28T17:47:02.762Z,59.42
2022-11-28T17:49:33.736Z,62.95
2022-11-28T17:52:01.110Z,67.80
2022-11-28T17:54:29.582Z,82.43
2022-11-28T17:56:57.584Z,73.63
2022-11-28T17:59:24.891Z,64.45
2022-11-28T18:01:52.584Z,80.57
2022-11-28T18:04:24.742Z,59.15
2022-11-28T18:06:52.747Z,54.97
2022-11-28T18:09:20.065Z,54.78
2022-11-28T18:11:47.670Z,51.53
2022-11-28T18:14:19.218Z,47.97
2022-11-28T18:16:47.630Z,57.15
2022-11-28T18:19:15.647Z,63.05
2022-11-28T18:21:43.394Z,69.72
2022-11-28T18:24:10.718Z,62.90
2022-11-28T18:26:38.430Z,68.00
2022-11-28T18:29:07.347Z,62.63
2022-11-28T18:31:35.757Z,68.43
2022-11-28T18:34:06.550Z,63.90
2022-11-28T18:36:37.057Z,61.17
2022-11-28T18:39:08.927Z,64.83
2022-11-28T18:41:36.712Z,59.70
2022-11-28T18:44:05.288Z,72.15
2022-11-28T18:46:33.435Z,62.88
2022-11-28T18:49:01.760Z,82.25
2022-11-28T18:51:32.366Z,81.20
2022-11-28T18:54:03.479Z,85.18
2022-11-28T18:56:31.911Z,75.80
2022-11-28T18:59:00.248Z,71.93
2022-11-28T19:01:31.245Z,74.65
2022-11-28T19:04:09.283Z,68.32
2022-11-28T19:06:39.114Z,73.57
2022-11-28T19:09:10.309Z,124.72
2022-11-28T19:11:38.911Z,98.40
2022-11-28T19:14:08.042Z,103.35
2022-11-28T19:16:37.575Z,101.72
2022-11-28T19:19:06.600Z,111.43
2022-11-28T19:21:36.691Z,114.15
2022-11-28T19:24:07.989Z,93.32
2022-11-28T19:26:37.230Z,89.50
2022-11-28T19:29:05.702Z,80.35
2022-11-28T19:31:35.172Z,160.90
2022-11-28T19:34:12.590Z,201.80
2022-11-28T19:36:48.221Z,65.30
2022-11-28T19:39:22.111Z,61.45
2022-11-28T19:41:52.534Z,68.28
2022-11-28T19:44:21.894Z,61.05
2022-11-28T19:46:50.321Z,59.83
2022-11-28T19:49:20.819Z,55.80
2022-11-28T19:51:50.090Z,58.88
2022-11-28T19:54:21.507Z,53.53
2022-11-28T19:56:49.674Z,54.15
2022-11-28T19:59:18.557Z,54.33
2022-11-28T20:01:48.859Z,55.72
2022-11-28T20:04:16.426Z,57.05
2022-11-28T20:06:44.276Z,59.63
2022-11-28T20:09:13.726Z,67.63
2022-11-28T20:11:43.687Z,73.63
2022-11-28T20:14:14.198Z,79.70
2022-11-28T20:16:41.688Z,73.72
2022-11-28T20:19:11.014Z,59.95
2022-11-28T20:21:38.952Z,60.10
2022-11-28T20:24:07.421Z,60.35
2022-11-28T20:26:38.683Z,64.03
2022-11-28T20:29:07.306Z,60.15
2022-11-28T20:31:37.213Z,56.00
2022-11-28T20:34:06.494Z,63.15
2022-11-28T20:36:34.604Z,62.75
2022-11-28T20:39:04.023Z,66.00
2022-11-28T20:41:32.138Z,96.28
2022-11-28T20:44:00.910Z,93.45
2022-11-28T20:46:34.073Z,79.55
2022-11-28T20:49:04.033Z,72.40
2022-11-28T20:51:33.891Z,61.72
2022-11-28T20:54:02.093Z,58.70
2022-11-28T20:56:31.812Z,58.72
2022-11-28T20:59:01.005Z,61.90
2022-11-28T21:01:33.199Z,65.00
2022-11-28T21:04:06.407Z,63.35
2022-11-28T21:06:36.390Z,70.40
2022-11-28T21:09:07.605Z,70.32
2022-11-28T21:11:56.130Z,71.10
2022-11-28T21:14:23.464Z,77.93
2022-11-28T21:16:50.854Z,92.25
2022-11-28T21:19:18.227Z,79.35
2022-11-28T21:21:45.489Z,82.10
2022-11-28T21:24:14.353Z,70.60
2022-11-28T21:26:46.617Z,76.82
2022-11-28T21:29:18.661Z,72.50
2022-11-28T21:31:46.743Z,77.68
2022-11-28T21:34:16.406Z,76.55
2022-11-28T21:36:44.455Z,89.47
2022-11-28T21:39:14.168Z,82.88
2022-11-28T21:41:41.722Z,65.13
2022-11-28T21:44:09.806Z,66.53
2022-11-28T21:46:37.083Z,70.00
2022-11-28T21:49:04.418Z,82.00
2022-11-28T21:51:32.822Z,86.88
2022-11-28T21:54:01.966Z,61.25
2022-11-28T21:56:30.134Z,54.33
2022-11-28T21:58:57.492Z,55.03
2022-11-28T22:01:25.085Z,48.50
2022-11-28T22:03:54.441Z,49.58
2022-11-28T22:06:27.447Z,42.97
2022-11-28T22:08:55.221Z,50.20
2022-11-28T22:11:24.160Z,49.22
2022-11-28T22:13:52.808Z,50.38
2022-11-28T22:16:25.979Z,48.90
2022-11-28T22:18:57.396Z,50.60
2022-11-28T22:24:14.548Z,45.70
2022-11-28T22:26:42.308Z,48.13
2022-11-28T22:29:10.042Z,47.03
2022-11-28T22:31:38.225Z,43.70
2022-11-28T22:34:08.396Z,45.33
2022-11-28T22:36:35.747Z,49.70
2022-11-28T22:39:06.148Z,48.95
2022-11-28T22:41:33.824Z,46.83
2022-11-28T22:44:02.540Z,48.45
2022-11-28T22:46:32.210Z,50.45
2022-11-28T22:49:00.775Z,52.55
2022-11-28T22:51:29.794Z,45.25
2022-11-28T22:53:59.569Z,50.67
